Time;durP1;ratioP1;P1;durP2;ratioP2;P2;SDS_P1;SDS_P2;PMS_P1;PMS_P2;Temp;Humidity;BMP_temperature;BMP_pressure;BME280_temperature;BME280_humidity;BME280_pressure;Samples;Min_cycle;Max_cycle;Signal;HPM_P1;HPM_P2
2022/07/21 00:00:35;;;;;;;1113.82;602.03;;;;;;;;;;5111269;28;20020;-73
2022/07/21 00:05:10;;;;;;;1096.22;597.85;;;;;;;;;;5111664;27;20462;-73
2022/07/21 00:07:36;;;;;;;1089.63;606.70;;;;;;;;;;5111365;28;20024;-73
2022/07/21 00:11:11;;;;;;;1102.22;591.05;;;;;;;;;;5070448;28;20388;-73
2022/07/21 00:13:37;;;;;;;1116.15;600.00;;;;;;;;;;5071178;28;20052;-72
2022/07/21 00:16:15;;;;;;;1089.53;621.80;;;;;;;;;;5111827;27;20912;-72
2022/07/21 00:18:41;;;;;;;1098.57;627.42;;;;;;;;;;5110081;28;20393;-73
2022/07/21 00:23:33;;;;;;;1120.75;586.60;;;;;;;;;;5111227;27;20481;-72
2022/07/21 00:25:59;;;;;;;1136.32;570.63;;;;;;;;;;5111497;28;20567;-72
2022/07/21 00:28:25;;;;;;;1123.13;573.05;;;;;;;;;;5111250;28;20484;-73
2022/07/21 00:32:48;;;;;;;1102.22;580.33;;;;;;;;;;5111509;27;20416;-74
2022/07/21 00:35:14;;;;;;;1108.18;586.50;;;;;;;;;;5111519;28;20488;-74
2022/07/21 00:37:41;;;;;;;1145.65;575.00;;;;;;;;;;5111290;28;20032;-74
2022/07/21 00:43:44;;;;;;;1126.22;558.60;;;;;;;;;;5071295;28;20395;-73
2022/07/21 00:46:38;;;;;;;1130.10;549.05;;;;;;;;;;5111888;27;20376;-72
2022/07/21 00:49:04;;;;;;;1142.10;564.97;;;;;;;;;;5111376;28;20024;-73
2022/07/21 00:51:30;;;;;;;1120.05;568.72;;;;;;;;;;5109658;28;20376;-72
2022/07/21 00:56:30;;;;;;;1147.45;568.13;;;;;;;;;;5051116;28;20427;-73
2022/07/21 00:58:56;;;;;;;1120.65;579.88;;;;;;;;;;5050718;28;20040;-72
2022/07/21 01:01:23;;;;;;;1115.18;564.65;;;;;;;;;;5050942;28;20025;-73
2022/07/21 01:03:49;;;;;;;1121.97;589.17;;;;;;;;;;5050789;28;20025;-73
2022/07/21 01:06:15;;;;;;;1139.22;577.60;;;;;;;;;;5049001;28;20029;-73
2022/07/21 01:08:41;;;;;;;1119.72;588.05;;;;;;;;;;5049412;28;20049;-73
2022/07/21 01:11:20;;;;;;;1113.05;591.17;;;;;;;;;;5111637;27;20369;-72
2022/07/21 01:13:47;;;;;;;1146.03;588.58;;;;;;;;;;5110930;28;20506;-73
2022/07/21 01:16:13;;;;;;;1141.90;576.70;;;;;;;;;;5111319;28;20081;-73
2022/07/21 01:20:06;;;;;;;1103.57;581.88;;;;;;;;;;5111303;27;20388;-74
2022/07/21 01:22:37;;;;;;;1112.43;564.42;;;;;;;;;;5111406;28;20034;-73
2022/07/21 01:26:11;;;;;;;1106.88;580.15;;;;;;;;;;5111798;27;20757;-73
2022/07/21 01:28:37;;;;;;;1093.93;582.42;;;;;;;;;;5110830;28;20028;-73
2022/07/21 01:31:03;;;;;;;1098.00;557.72;;;;;;;;;;5110032;28;20065;-74
2022/07/21 01:34:29;;;;;;;1123.53;569.10;;;;;;;;;;5111393;27;20396;-73
2022/07/21 01:48:10;;;;;;;1124.47;581.63;;;;;;;;;;5111523;27;20400;-73
2022/07/21 01:50:37;;;;;;;1161.57;587.58;;;;;;;;;;5111360;28;20027;-72
2022/07/21 01:53:40;;;;;;;1136.30;585.30;;;;;;;;;;5111631;27;20368;-73
2022/07/21 01:56:07;;;;;;;1147.78;565.60;;;;;;;;;;5110985;28;20075;-73
2022/07/21 02:00:15;;;;;;;1127.47;597.25;;;;;;;;;;5111357;27;20891;-72
2022/07/21 02:02:41;;;;;;;1133.03;582.88;;;;;;;;;;5109764;28;20077;-73
2022/07/21 02:05:08;;;;;;;1122.85;581.33;;;;;;;;;;5111315;28;20539;-73
2022/07/21 02:07:34;;;;;;;1097.72;603.60;;;;;;;;;;5111472;28;20043;-72
2022/07/21 02:10:00;;;;;;;1139.85;585.20;;;;;;;;;;5110840;28;20019;-72
2022/07/21 02:12:26;;;;;;;1134.38;618.10;;;;;;;;;;5111284;28;20032;-73
2022/07/21 02:18:48;;;;;;;1118.93;581.30;;;;;;;;;;5112198;27;20405;-73
2022/07/21 02:21:15;;;;;;;1116.47;588.17;;;;;;;;;;5110116;28;20035;-73
2022/07/21 02:25:30;;;;;;;1116.78;612.35;;;;;;;;;;5111635;27;20408;-73
2022/07/21 02:27:57;;;;;;;1123.80;606.58;;;;;;;;;;5110165;28;20391;-72
2022/07/21 02:30:23;;;;;;;1111.35;626.53;;;;;;;;;;5110940;28;20027;-72
2022/07/21 02:33:30;;;;;;;1109.03;609.10;;;;;;;;;;5112175;27;20412;-73
2022/07/21 02:35:56;;;;;;;1109.40;590.30;;;;;;;;;;5110151;28;20036;-73
2022/07/21 02:38:22;;;;;;;1121.65;633.25;;;;;;;;;;5109509;28;20111;-73
2022/07/21 02:40:49;;;;;;;1098.85;591.33;;;;;;;;;;5111498;28;20030;-73
2022/07/21 02:43:15;;;;;;;1119.25;607.25;;;;;;;;;;5111177;28;20028;-73
2022/07/21 02:48:12;;;;;;;1145.55;574.60;;;;;;;;;;5111448;27;20393;-73
2022/07/21 02:50:39;;;;;;;1146.97;565.80;;;;;;;;;;5111436;28;20164;-73
2022/07/21 02:53:10;;;;;;;1133.45;579.20;;;;;;;;;;5110976;28;20016;-73
2022/07/21 02:55:46;;;;;;;1120.78;598.25;;;;;;;;;;5110189;28;20491;-73
2022/07/21 03:00:27;;;;;;;1107.90;582.97;;;;;;;;;;5111404;27;20790;-73
2022/07/21 03:02:53;;;;;;;1132.60;588.53;;;;;;;;;;5111348;28;20043;-73
2022/07/21 03:06:12;;;;;;;1113.97;580.35;;;;;;;;;;5111110;27;20962;-73
2022/07/21 03:08:38;;;;;;;1123.72;616.08;;;;;;;;;;5111369;28;20032;-73
2022/07/21 03:12:27;;;;;;;1144.45;569.88;;;;;;;;;;5110985;27;20454;-74
2022/07/21 03:16:37;;;;;;;1137.38;587.20;;;;;;;;;;5111828;27;20442;-74
2022/07/21 03:19:30;;;;;;;1142.28;627.00;;;;;;;;;;5111577;27;20545;-74
2022/07/21 03:21:56;;;;;;;1111.80;594.55;;;;;;;;;;5111628;28;20100;-74
2022/07/21 03:24:56;;;;;;;1127.80;612.88;;;;;;;;;;5112259;27;20409;-74
2022/07/21 03:28:34;;;;;;;1127.57;594.47;;;;;;;;;;5112089;27;20900;-74
2022/07/21 03:31:00;;;;;;;1103.15;605.15;;;;;;;;;;5111994;28;20028;-74
2022/07/21 03:35:35;;;;;;;1114.10;617.08;;;;;;;;;;5111791;27;20408;-74
2022/07/21 03:38:01;;;;;;;1080.30;615.03;;;;;;;;;;5111477;28;20030;-73
2022/07/21 03:40:52;;;;;;;1147.38;603.30;;;;;;;;;;5111461;27;20427;-74
2022/07/21 03:44:51;;;;;;;1124.93;609.15;;;;;;;;;;5111683;27;20458;-74
2022/07/21 03:48:45;;;;;;;1123.85;572.20;;;;;;;;;;5111247;27;20477;-73
2022/07/21 03:51:11;;;;;;;968.70;598.20;;;;;;;;;;5110069;28;20047;-73
2022/07/21 03:53:38;;;;;;;918.13;595.53;;;;;;;;;;5111303;28;20472;-74
2022/07/21 03:56:04;;;;;;;962.70;569.47;;;;;;;;;;5110864;28;20024;-73
2022/07/21 03:58:30;;;;;;;1151.43;587.58;;;;;;;;;;5111448;28;20069;-73
2022/07/21 04:00:56;;;;;;;1149.38;563.67;;;;;;;;;;5111232;28;20024;-73
2022/07/21 04:03:22;;;;;;;1160.22;561.50;;;;;;;;;;5110758;28;20509;-74
2022/07/21 04:05:49;;;;;;;1140.43;554.65;;;;;;;;;;5111103;28;20036;-74
2022/07/21 04:08:15;;;;;;;1152.35;557.13;;;;;;;;;;5110717;28;20209;-74
2022/07/21 04:12:07;;;;;;;1079.78;609.97;;;;;;;;;;5111337;27;20368;-75
2022/07/21 04:14:33;;;;;;;1119.20;616.00;;;;;;;;;;5111325;28;20051;-74
2022/07/21 04:17:49;;;;;;;1158.50;563.95;;;;;;;;;;5111703;27;20396;-73
2022/07/21 04:26:36;;;;;;;1124.65;588.20;;;;;;;;;;5111800;27;20409;-73
2022/07/21 04:33:12;;;;;;;878.17;601.90;;;;;;;;;;5099864;27;1595689;-75
2022/07/21 04:35:38;;;;;;;1036.53;585.97;;;;;;;;;;5131887;28;20029;-73
2022/07/21 04:40:11;;;;;;;1086.25;580.97;;;;;;;;;;5112185;27;20903;-75
2022/07/21 04:46:09;;;;;;;1133.97;584.28;;;;;;;;;;5112094;27;20406;-74
2022/07/21 04:50:29;;;;;;;1121.85;586.90;;;;;;;;;;5111403;27;20408;-73
2022/07/21 04:52:55;;;;;;;1147.75;583.55;;;;;;;;;;5109994;28;20063;-73
2022/07/21 04:55:22;;;;;;;1140.80;582.85;;;;;;;;;;5111400;28;20028;-74
2022/07/21 04:59:11;;;;;;;1120.60;591.80;;;;;;;;;;5110979;27;20388;-73
2022/07/21 05:01:38;;;;;;;1132.95;569.20;;;;;;;;;;5110061;28;20426;-73
2022/07/21 05:04:05;;;;;;;1127.72;575.67;;;;;;;;;;5110078;28;20456;-73
2022/07/21 05:08:47;;;;;;;1151.90;563.67;;;;;;;;;;5113685;27;20980;-77
2022/07/21 05:11:13;;;;;;;1164.28;600.55;;;;;;;;;;5110248;28;20547;-78
2022/07/21 05:15:56;;;;;;;1139.30;597.50;;;;;;;;;;5112187;27;20392;-77
2022/07/21 05:18:22;;;;;;;1141.35;618.53;;;;;;;;;;5111473;28;20032;-77
2022/07/21 05:27:06;;;;;;;1110.13;575.42;;;;;;;;;;5111331;27;20384;-78
2022/07/21 05:29:32;;;;;;;1126.68;579.28;;;;;;;;;;5111555;28;20019;-78
2022/07/21 05:31:58;;;;;;;1108.80;599.17;;;;;;;;;;5111522;28;20026;-78
2022/07/21 05:34:24;;;;;;;1122.57;577.58;;;;;;;;;;5111046;28;20031;-77
2022/07/21 05:36:50;;;;;;;1134.20;585.38;;;;;;;;;;5111088;28;20061;-77
2022/07/21 05:39:39;;;;;;;1110.55;588.30;;;;;;;;;;5098468;27;20406;-75
2022/07/21 05:42:05;;;;;;;1108.38;591.58;;;;;;;;;;5087654;28;20024;-74
2022/07/21 05:44:31;;;;;;;1116.00;583.58;;;;;;;;;;5082593;28;20021;-77
2022/07/21 05:47:43;;;;;;;1121.63;661.65;;;;;;;;;;5111461;27;20701;-77
2022/07/21 05:50:10;;;;;;;1112.38;628.33;;;;;;;;;;5110693;28;20077;-80
2022/07/21 05:52:36;;;;;;;1089.22;654.65;;;;;;;;;;5110177;28;20483;-77
2022/07/21 05:55:02;;;;;;;1111.00;619.13;;;;;;;;;;5109936;28;20096;-76
2022/07/21 05:57:29;;;;;;;1098.18;613.15;;;;;;;;;;5105543;28;20051;-77
2022/07/21 06:00:16;;;;;;;1143.55;591.08;;;;;;;;;;5111509;27;20385;-76
2022/07/21 06:02:43;;;;;;;1154.82;599.75;;;;;;;;;;5088853;28;20078;-77
2022/07/21 06:05:10;;;;;;;1138.50;639.10;;;;;;;;;;5090797;28;20021;-76
2022/07/21 06:09:46;;;;;;;1141.43;634.30;;;;;;;;;;5070420;28;20461;-75
2022/07/21 06:12:12;;;;;;;1108.45;649.95;;;;;;;;;;5070779;28;20484;-76
2022/07/21 06:16:20;;;;;;;1129.40;637.95;;;;;;;;;;5111969;27;20389;-79
2022/07/21 06:18:47;;;;;;;1122.28;610.20;;;;;;;;;;5110903;28;20038;-78
2022/07/21 06:21:13;;;;;;;1132.28;585.38;;;;;;;;;;5111608;28;20051;-74
2022/07/21 06:25:20;;;;;;;1140.35;590.42;;;;;;;;;;5111350;27;20416;-78
2022/07/21 06:27:46;;;;;;;1137.10;639.00;;;;;;;;;;5111376;28;20028;-77
2022/07/21 06:31:55;;;;;;;1121.95;650.40;;;;;;;;;;5112003;27;20992;-80
2022/07/21 06:34:21;;;;;;;1141.82;628.70;;;;;;;;;;5112368;28;20039;-80
2022/07/21 06:36:47;;;;;;;1139.88;684.83;;;;;;;;;;5110898;28;20020;-76
2022/07/21 06:39:13;;;;;;;1123.57;645.13;;;;;;;;;;5109842;28;20119;-76
2022/07/21 06:41:42;;;;;;;1097.00;661.67;;;;;;;;;;5109531;28;20032;-78
2022/07/21 06:45:34;;;;;;;1109.68;638.45;;;;;;;;;;5091203;27;20485;-77
2022/07/21 06:50:02;;;;;;;1120.68;663.70;;;;;;;;;;5070070;28;20399;-76
2022/07/21 06:52:28;;;;;;;1122.78;688.88;;;;;;;;;;5052114;28;20035;-78
2022/07/21 06:54:54;;;;;;;1122.68;689.45;;;;;;;;;;5068157;28;20029;-78
2022/07/21 06:57:21;;;;;;;1090.43;645.58;;;;;;;;;;5052892;28;20017;-80
2022/07/21 06:59:47;;;;;;;1143.32;639.45;;;;;;;;;;5070996;28;20455;-80
2022/07/21 07:02:13;;;;;;;1129.90;656.78;;;;;;;;;;5070970;28;20028;-78
2022/07/21 07:04:39;;;;;;;1117.65;668.30;;;;;;;;;;5070376;28;20017;-79
2022/07/21 07:07:05;;;;;;;1118.05;701.88;;;;;;;;;;5070497;28;20025;-77
2022/07/21 07:09:32;;;;;;;1127.13;665.20;;;;;;;;;;5052271;28;20162;-78
2022/07/21 07:12:03;;;;;;;1070.30;668.75;;;;;;;;;;5069870;28;20021;-77
2022/07/21 07:14:32;;;;;;;1065.47;707.25;;;;;;;;;;5070431;28;20021;-81
2022/07/21 07:16:59;;;;;;;1104.43;673.58;;;;;;;;;;5070552;28;20021;-79
2022/07/21 07:19:25;;;;;;;1094.85;665.85;;;;;;;;;;5069321;28;20409;-76
2022/07/21 07:21:51;;;;;;;17.13;6.22;;;;;;;;;;5070393;28;20027;-79
2022/07/21 07:27:11;;;;;;;19.00;4.00;;;;;;;;;;5110927;27;20896;-76
2022/07/21 07:29:37;;;;;;;5.50;2.20;;;;;;;;;;5111556;28;20106;-79
2022/07/21 07:32:04;;;;;;;10.10;3.22;;;;;;;;;;5111432;28;20440;-79
2022/07/21 07:34:58;;;;;;;4.25;1.60;;;;;;;;;;5111844;27;20385;-79
2022/07/21 07:37:24;;;;;;;2.80;1.70;;;;;;;;;;5111796;28;20035;-80
2022/07/21 07:39:50;;;;;;;3.05;1.85;;;;;;;;;;5111041;28;20051;-80
2022/07/21 07:42:16;;;;;;;4.05;1.70;;;;;;;;;;5111422;28;20098;-79
2022/07/21 07:44:42;;;;;;;4.93;2.85;;;;;;;;;;5111883;28;20020;-78
2022/07/21 07:52:07;;;;;;;3.40;1.50;;;;;;;;;;5132521;27;20385;-80
2022/07/21 07:54:34;;;;;;;3.95;1.77;;;;;;;;;;5111350;28;20028;-79
2022/07/21 07:57:00;;;;;;;5.47;1.50;;;;;;;;;;5111636;28;20085;-79
2022/07/21 07:59:26;;;;;;;2.65;1.70;;;;;;;;;;5112079;28;20028;-79
2022/07/21 08:03:09;;;;;;;6.07;1.95;;;;;;;;;;5071633;28;20399;-80
2022/07/21 08:05:35;;;;;;;4.63;1.52;;;;;;;;;;5071239;28;20047;-79
2022/07/21 08:08:01;;;;;;;2.83;1.40;;;;;;;;;;5062689;28;20377;-77
2022/07/21 08:10:27;;;;;;;5.75;1.98;;;;;;;;;;5049777;28;20025;-78
2022/07/21 08:14:26;;;;;;;3.10;1.98;;;;;;;;;;5112197;27;20996;-80
2022/07/21 08:16:52;;;;;;;3.45;1.80;;;;;;;;;;5111921;28;20032;-82
2022/07/21 08:19:18;;;;;;;3.67;1.83;;;;;;;;;;5110569;28;20020;-78
2022/07/21 08:21:44;;;;;;;3.08;1.83;;;;;;;;;;5112291;28;20484;-80
2022/07/21 08:24:10;;;;;;;3.83;1.67;;;;;;;;;;5110249;28;20028;-79
2022/07/21 08:26:36;;;;;;;3.08;1.67;;;;;;;;;;5111705;28;20478;-80
2022/07/21 08:29:03;;;;;;;4.28;2.17;;;;;;;;;;5111768;28;20391;-77
2022/07/21 08:31:29;;;;;;;2.92;2.00;;;;;;;;;;5111750;28;20050;-79
2022/07/21 08:33:55;;;;;;;3.00;1.63;;;;;;;;;;5110903;28;20377;-81
2022/07/21 08:36:21;;;;;;;3.97;1.80;;;;;;;;;;5110117;28;20020;-81
2022/07/21 08:38:47;;;;;;;3.88;1.77;;;;;;;;;;5111128;28;20028;-81
2022/07/21 08:41:14;;;;;;;5.13;1.83;;;;;;;;;;5111782;28;20426;-79
2022/07/21 08:43:40;;;;;;;4.68;1.50;;;;;;;;;;5109892;28;20051;-78
2022/07/21 08:46:06;;;;;;;3.15;1.50;;;;;;;;;;5111728;28;20446;-80
2022/07/21 08:48:33;;;;;;;4.20;1.80;;;;;;;;;;5110745;28;20369;-80
2022/07/21 08:50:59;;;;;;;4.50;1.33;;;;;;;;;;5112040;28;20046;-81
2022/07/21 08:53:26;;;;;;;3.50;1.60;;;;;;;;;;5112377;28;20049;-82
2022/07/21 08:55:52;;;;;;;3.67;1.63;;;;;;;;;;5114125;28;20020;-79
2022/07/21 08:58:19;;;;;;;2.88;1.60;;;;;;;;;;5115126;28;20535;-79
2022/07/21 09:00:49;;;;;;;4.13;1.50;;;;;;;;;;5116664;28;20031;-80
2022/07/21 09:03:18;;;;;;;3.65;1.73;;;;;;;;;;5115194;28;20024;-80
2022/07/21 09:06:00;;;;;;;3.78;1.73;;;;;;;;;;5111360;28;20026;-81
2022/07/21 09:08:31;;;;;;;6.47;1.93;;;;;;;;;;5111785;28;20074;-80
2022/07/21 09:11:12;;;;;;;2.53;1.48;;;;;;;;;;5110634;28;20027;-80
2022/07/21 09:13:41;;;;;;;3.47;1.60;;;;;;;;;;5106183;28;20047;-81
2022/07/21 09:16:07;;;;;;;5.13;1.83;;;;;;;;;;5110795;28;20051;-80
2022/07/21 09:18:34;;;;;;;4.65;1.50;;;;;;;;;;5110198;28;20028;-80
2022/07/21 09:21:01;;;;;;;3.28;1.77;;;;;;;;;;5092203;28;20119;-82
2022/07/21 09:23:28;;;;;;;4.80;2.25;;;;;;;;;;5102930;28;20465;-80
2022/07/21 09:25:55;;;;;;;3.28;1.60;;;;;;;;;;5075150;28;20119;-80
2022/07/21 09:28:26;;;;;;;6.38;1.67;;;;;;;;;;5076361;28;20030;-80
2022/07/21 09:30:52;;;;;;;3.30;1.40;;;;;;;;;;5076062;28;20025;-78
2022/07/21 09:33:20;;;;;;;3.55;1.70;;;;;;;;;;5074617;28;20119;-80
2022/07/21 09:36:00;;;;;;;4.13;2.00;;;;;;;;;;5076579;28;20028;-81
2022/07/21 09:38:27;;;;;;;4.35;1.98;;;;;;;;;;5076629;28;20059;-80
2022/07/21 09:40:53;;;;;;;6.88;1.77;;;;;;;;;;5075546;28;20035;-77
2022/07/21 09:43:41;;;;;;;4.57;2.20;;;;;;;;;;5075873;28;20028;-76
2022/07/21 09:46:08;;;;;;;4.97;2.03;;;;;;;;;;5074163;28;20024;-74
2022/07/21 09:48:36;;;;;;;3.10;1.90;;;;;;;;;;5075791;28;20035;-74
2022/07/21 09:51:21;;;;;;;9.88;1.63;;;;;;;;;;5073514;28;20021;-74
2022/07/21 09:53:51;;;;;;;4.28;1.92;;;;;;;;;;5073404;28;20062;-74
2022/07/21 09:56:18;;;;;;;2.88;1.50;;;;;;;;;;5074317;28;20021;-74
2022/07/21 09:58:47;;;;;;;1.83;1.38;;;;;;;;;;5075613;28;20085;-74
2022/07/21 10:01:13;;;;;;;2.75;1.20;;;;;;;;;;5074701;28;20025;-73
2022/07/21 10:03:39;;;;;;;8.02;1.67;;;;;;;;;;5074869;28;20540;-75
2022/07/21 10:06:06;;;;;;;3.90;1.80;;;;;;;;;;5074922;28;20033;-73
2022/07/21 10:08:33;;;;;;;4.05;1.60;;;;;;;;;;5075174;28;20481;-74
2022/07/21 10:11:00;;;;;;;5.38;1.55;;;;;;;;;;5075633;28;20029;-73
2022/07/21 10:13:27;;;;;;;1.90;1.45;;;;;;;;;;5075137;28;20131;-73
2022/07/21 10:15:54;;;;;;;2.38;1.10;;;;;;;;;;5074848;28;20051;-74
2022/07/21 10:18:30;;;;;;;2.63;1.30;;;;;;;;;;5073935;28;20024;-73
2022/07/21 10:21:00;;;;;;;4.03;1.30;;;;;;;;;;5075434;28;20064;-74
2022/07/21 10:23:35;;;;;;;3.40;1.35;;;;;;;;;;5074730;28;20028;-74
2022/07/21 10:26:02;;;;;;;2.10;1.33;;;;;;;;;;5075279;28;20512;-74
2022/07/21 10:28:29;;;;;;;2.13;1.45;;;;;;;;;;5074550;28;20024;-74
2022/07/21 10:30:56;;;;;;;3.75;1.40;;;;;;;;;;5074949;28;20020;-74
2022/07/21 10:33:42;;;;;;;2.67;1.63;;;;;;;;;;5073548;28;20108;-74
2022/07/21 10:36:08;;;;;;;2.10;1.63;;;;;;;;;;5072046;28;20024;-74
2022/07/21 10:38:35;;;;;;;6.63;2.58;;;;;;;;;;5074818;28;20021;-74
2022/07/21 10:41:03;;;;;;;4.20;2.00;;;;;;;;;;5073439;28;20028;-74
2022/07/21 10:43:29;;;;;;;5.30;1.90;;;;;;;;;;5074447;28;20024;-74
2022/07/21 10:45:56;;;;;;;4.88;2.40;;;;;;;;;;5074613;28;20039;-74
2022/07/21 10:48:37;;;;;;;4.32;2.08;;;;;;;;;;5074580;28;20033;-74
2022/07/21 10:51:14;;;;;;;6.18;2.92;;;;;;;;;;5074116;28;20542;-74
2022/07/21 10:53:40;;;;;;;6.63;3.13;;;;;;;;;;5074424;28;20044;-74
2022/07/21 10:56:07;;;;;;;4.85;3.22;;;;;;;;;;5074479;28;20028;-74
2022/07/21 10:58:40;;;;;;;5.25;3.08;;;;;;;;;;5074235;28;20021;-74
2022/07/21 11:01:19;;;;;;;7.22;4.60;;;;;;;;;;5074467;28;20083;-74
2022/07/21 11:03:46;;;;;;;8.10;5.40;;;;;;;;;;5074009;28;20036;-74
2022/07/21 11:06:17;;;;;;;8.13;4.05;;;;;;;;;;5074364;28;20416;-74
2022/07/21 11:08:44;;;;;;;10.68;5.30;;;;;;;;;;5074697;28;20017;-74
2022/07/21 11:11:10;;;;;;;5.45;3.30;;;;;;;;;;5073636;28;20023;-74
2022/07/21 11:13:55;;;;;;;4.57;2.80;;;;;;;;;;5073967;28;20053;-74
2022/07/21 11:16:21;;;;;;;6.65;3.83;;;;;;;;;;5074200;28;20029;-74
2022/07/21 11:18:47;;;;;;;7.78;3.63;;;;;;;;;;5073869;28;20028;-74
2022/07/21 11:21:14;;;;;;;7.55;3.90;;;;;;;;;;5074208;28;20025;-74
2022/07/21 11:23:45;;;;;;;6.22;3.00;;;;;;;;;;5072681;28;20029;-75
2022/07/21 11:26:13;;;;;;;6.47;3.20;;;;;;;;;;5072443;28;20032;-74
2022/07/21 11:28:39;;;;;;;4.35;2.55;;;;;;;;;;5073899;28;20031;-74
2022/07/21 11:31:16;;;;;;;6.00;3.28;;;;;;;;;;5072572;28;20024;-75
2022/07/21 11:33:44;;;;;;;5.10;2.80;;;;;;;;;;5073319;28;20029;-75
2022/07/21 11:36:10;;;;;;;4.25;2.60;;;;;;;;;;5073692;28;20020;-74
2022/07/21 11:38:36;;;;;;;5.97;2.78;;;;;;;;;;5073380;28;20060;-74
2022/07/21 11:41:15;;;;;;;4.20;2.30;;;;;;;;;;5073938;28;20020;-74
2022/07/21 11:43:45;;;;;;;5.28;2.45;;;;;;;;;;5073653;28;20079;-74
2022/07/21 11:46:12;;;;;;;5.07;2.40;;;;;;;;;;5071966;28;20024;-75
2022/07/21 11:48:38;;;;;;;6.22;2.72;;;;;;;;;;5073334;28;20024;-74
2022/07/21 11:51:05;;;;;;;5.50;2.72;;;;;;;;;;5073473;28;20025;-74
2022/07/21 11:53:32;;;;;;;7.75;2.63;;;;;;;;;;5073258;28;20102;-74
2022/07/21 11:55:58;;;;;;;5.45;2.47;;;;;;;;;;5073512;28;20028;-74
2022/07/21 11:58:24;;;;;;;3.67;2.20;;;;;;;;;;5073461;28;20028;-74
2022/07/21 12:01:04;;;;;;;6.68;2.45;;;;;;;;;;5071706;28;20031;-74
2022/07/21 12:03:30;;;;;;;3.90;2.20;;;;;;;;;;5073678;28;20025;-74
2022/07/21 12:05:56;;;;;;;4.22;2.28;;;;;;;;;;5073353;28;20036;-74
2022/07/21 12:08:23;;;;;;;8.88;2.55;;;;;;;;;;5071828;28;20587;-74
2022/07/21 12:10:49;;;;;;;7.93;2.10;;;;;;;;;;5073318;28;20067;-74
2022/07/21 12:13:15;;;;;;;4.18;2.10;;;;;;;;;;5073203;28;20131;-74
2022/07/21 12:15:42;;;;;;;3.70;2.10;;;;;;;;;;5071681;28;20028;-74
2022/07/21 12:18:09;;;;;;;6.97;2.03;;;;;;;;;;5073305;28;20040;-74
2022/07/21 12:20:37;;;;;;;3.90;2.28;;;;;;;;;;5073217;28;20513;-74
2022/07/21 12:23:17;;;;;;;5.20;2.15;;;;;;;;;;5073209;28;20103;-74
2022/07/21 12:25:43;;;;;;;3.28;1.98;;;;;;;;;;5072026;28;20024;-74
2022/07/21 12:28:10;;;;;;;3.13;1.70;;;;;;;;;;5073096;28;20115;-74
2022/07/21 12:30:40;;;;;;;3.95;1.90;;;;;;;;;;5071875;28;20032;-75
2022/07/21 12:33:09;;;;;;;2.60;1.70;;;;;;;;;;5073038;28;20033;-75
2022/07/21 12:35:36;;;;;;;4.55;1.70;;;;;;;;;;5072689;28;20029;-74
2022/07/21 12:38:07;;;;;;;4.05;1.92;;;;;;;;;;5073066;28;20028;-74
2022/07/21 12:40:35;;;;;;;2.80;1.60;;;;;;;;;;5073123;28;20385;-74
2022/07/21 12:43:21;;;;;;;3.78;2.00;;;;;;;;;;5072765;28;20520;-74
2022/07/21 12:45:48;;;;;;;4.70;1.55;;;;;;;;;;5071774;28;20020;-74
2022/07/21 12:48:15;;;;;;;5.90;1.75;;;;;;;;;;5073240;28;20021;-74
2022/07/21 12:50:42;;;;;;;6.00;1.83;;;;;;;;;;5072641;28;20021;-75
2022/07/21 12:53:12;;;;;;;4.13;1.80;;;;;;;;;;5071495;28;20485;-74
2022/07/21 12:55:39;;;;;;;3.45;1.70;;;;;;;;;;5073046;28;20024;-73
2022/07/21 12:58:05;;;;;;;5.47;2.03;;;;;;;;;;5072391;28;20036;-75
2022/07/21 13:00:32;;;;;;;3.13;1.73;;;;;;;;;;5076867;28;20036;-73
2022/07/21 13:02:58;;;;;;;6.22;2.10;;;;;;;;;;5074403;28;20020;-72
2022/07/21 13:05:25;;;;;;;4.18;1.83;;;;;;;;;;5075301;28;20047;-73
2022/07/21 13:07:51;;;;;;;2.22;1.30;;;;;;;;;;5075547;28;20455;-72
2022/07/21 13:10:18;;;;;;;2.85;1.52;;;;;;;;;;5076124;28;20048;-72
2022/07/21 13:12:44;;;;;;;4.85;1.55;;;;;;;;;;5076182;28;20044;-72
2022/07/21 13:15:11;;;;;;;2.63;1.60;;;;;;;;;;5075337;28;20476;-72
2022/07/21 13:17:37;;;;;;;3.50;1.67;;;;;;;;;;5075953;28;20031;-75
2022/07/21 13:20:03;;;;;;;2.70;1.60;;;;;;;;;;5076491;28;20103;-74
2022/07/21 13:22:29;;;;;;;3.83;1.80;;;;;;;;;;5076194;28;20056;-74
2022/07/21 13:24:56;;;;;;;3.60;1.70;;;;;;;;;;5075964;28;20027;-74
2022/07/21 13:27:22;;;;;;;5.03;1.65;;;;;;;;;;5075024;28;20031;-74
2022/07/21 13:29:48;;;;;;;4.53;1.80;;;;;;;;;;5075776;28;20103;-73
2022/07/21 13:32:14;;;;;;;3.80;1.50;;;;;;;;;;5075928;28;20025;-74
2022/07/21 13:34:40;;;;;;;4.68;2.03;;;;;;;;;;5075940;28;20021;-74
2022/07/21 13:37:11;;;;;;;3.40;1.73;;;;;;;;;;5076139;28;20029;-75
2022/07/21 13:39:37;;;;;;;3.37;1.40;;;;;;;;;;5075697;28;20361;-74
2022/07/21 13:42:05;;;;;;;2.38;1.50;;;;;;;;;;5075969;28;20095;-75
2022/07/21 13:44:31;;;;;;;4.38;1.60;;;;;;;;;;5075893;28;20086;-74
2022/07/21 13:46:58;;;;;;;6.25;1.65;;;;;;;;;;5075405;28;20032;-74
2022/07/21 13:49:24;;;;;;;4.43;2.03;;;;;;;;;;5075724;28;20074;-74
2022/07/21 13:51:50;;;;;;;3.50;1.70;;;;;;;;;;5075716;28;20016;-73
2022/07/21 13:54:16;;;;;;;7.82;1.45;;;;;;;;;;5075123;28;20036;-73
2022/07/21 13:56:42;;;;;;;5.25;1.58;;;;;;;;;;5075693;28;20020;-73
2022/07/21 13:59:09;;;;;;;2.75;1.42;;;;;;;;;;5075162;28;20456;-74
2022/07/21 14:01:35;;;;;;;3.78;1.67;;;;;;;;;;5075658;28;20024;-75
2022/07/21 14:04:01;;;;;;;2.22;1.27;;;;;;;;;;5075355;28;20033;-74
2022/07/21 14:06:27;;;;;;;2.90;1.63;;;;;;;;;;5073763;28;20070;-74
2022/07/21 14:08:53;;;;;;;3.60;1.60;;;;;;;;;;5075489;28;20025;-74
2022/07/21 14:11:22;;;;;;;3.20;1.50;;;;;;;;;;5075279;28;20024;-74
2022/07/21 14:13:48;;;;;;;3.67;1.77;;;;;;;;;;5073322;28;20044;-72
2022/07/21 14:16:14;;;;;;;2.40;1.20;;;;;;;;;;5075208;28;20031;-72
2022/07/21 14:18:41;;;;;;;4.72;1.60;;;;;;;;;;5075029;28;20497;-72
2022/07/21 14:21:07;;;;;;;3.03;1.30;;;;;;;;;;5074936;28;20099;-73
2022/07/21 14:23:33;;;;;;;4.75;1.52;;;;;;;;;;5075246;28;20113;-73
2022/07/21 14:26:00;;;;;;;3.33;1.58;;;;;;;;;;5073740;28;20550;-73
2022/07/21 14:28:26;;;;;;;2.90;1.30;;;;;;;;;;5074632;28;20089;-73
2022/07/21 14:30:53;;;;;;;4.15;1.50;;;;;;;;;;5075035;28;20439;-73
2022/07/21 14:33:19;;;;;;;2.95;1.85;;;;;;;;;;5074784;28;20059;-73
2022/07/21 14:35:45;;;;;;;3.92;1.83;;;;;;;;;;5074307;28;20067;-74
2022/07/21 14:38:11;;;;;;;3.83;1.80;;;;;;;;;;5074654;28;20032;-73
2022/07/21 14:40:38;;;;;;;4.10;1.60;;;;;;;;;;5073259;28;20020;-73
2022/07/21 14:43:05;;;;;;;2.58;1.30;;;;;;;;;;5074192;28;20020;-73
2022/07/21 14:45:31;;;;;;;2.35;1.42;;;;;;;;;;5074534;28;20039;-73
2022/07/21 14:47:57;;;;;;;3.55;1.90;;;;;;;;;;5073160;28;20032;-72
2022/07/21 14:50:26;;;;;;;6.57;1.63;;;;;;;;;;5073941;28;20024;-73
2022/07/21 14:52:52;;;;;;;3.92;1.60;;;;;;;;;;5074038;28;20383;-73
2022/07/21 14:55:22;;;;;;;4.32;1.90;;;;;;;;;;5074039;28;20104;-73
2022/07/21 14:57:49;;;;;;;5.05;1.90;;;;;;;;;;5074178;28;20028;-73
2022/07/21 15:00:15;;;;;;;3.97;1.60;;;;;;;;;;5072937;28;20025;-74
2022/07/21 15:02:41;;;;;;;5.45;1.77;;;;;;;;;;5073750;28;20035;-73
2022/07/21 15:05:08;;;;;;;3.13;1.42;;;;;;;;;;5072815;28;20028;-73
2022/07/21 15:07:34;;;;;;;3.70;1.50;;;;;;;;;;5074197;28;20377;-73
2022/07/21 15:10:00;;;;;;;8.30;1.88;;;;;;;;;;5073617;28;20024;-73
2022/07/21 15:12:26;;;;;;;4.03;1.50;;;;;;;;;;5072269;28;20123;-73
2022/07/21 15:14:53;;;;;;;3.83;1.40;;;;;;;;;;5074266;28;20534;-74
2022/07/21 15:17:19;;;;;;;7.05;1.73;;;;;;;;;;5073498;28;20023;-73
2022/07/21 15:19:45;;;;;;;3.92;1.70;;;;;;;;;;5073870;28;20408;-74
2022/07/21 15:22:11;;;;;;;3.65;1.60;;;;;;;;;;5073508;28;20021;-73
2022/07/21 15:24:37;;;;;;;4.88;1.70;;;;;;;;;;5072212;28;20369;-73
2022/07/21 15:27:03;;;;;;;2.22;1.40;;;;;;;;;;5073684;28;20078;-73
2022/07/21 15:29:30;;;;;;;4.78;1.50;;;;;;;;;;5073560;28;20495;-74
2022/07/21 15:31:56;;;;;;;4.90;1.88;;;;;;;;;;5072102;28;20056;-74
2022/07/21 15:34:22;;;;;;;9.43;1.90;;;;;;;;;;5073538;28;20028;-74
2022/07/21 15:36:48;;;;;;;3.00;1.75;;;;;;;;;;5073899;28;20027;-75
2022/07/21 15:39:14;;;;;;;5.47;1.70;;;;;;;;;;5073346;28;20381;-73
2022/07/21 15:41:41;;;;;;;3.95;1.58;;;;;;;;;;5073772;28;20032;-74
2022/07/21 15:44:07;;;;;;;2.60;1.60;;;;;;;;;;5073673;28;20029;-74
2022/07/21 15:46:34;;;;;;;2.67;1.30;;;;;;;;;;5073315;28;20025;-75
2022/07/21 15:49:00;;;;;;;3.30;1.70;;;;;;;;;;5073650;28;20025;-72
2022/07/21 15:51:26;;;;;;;4.70;1.73;;;;;;;;;;5073602;28;20031;-72
2022/07/21 15:53:52;;;;;;;5.72;1.50;;;;;;;;;;5073015;28;20033;-73
2022/07/21 15:56:18;;;;;;;3.97;1.65;;;;;;;;;;5073563;28;20027;-73
2022/07/21 16:01:29;;;;;;;4.20;1.80;;;;;;;;;;5073724;28;20055;-74
2022/07/21 16:03:56;;;;;;;4.57;2.03;;;;;;;;;;5072219;28;20114;-73
2022/07/21 16:06:22;;;;;;;5.78;1.60;;;;;;;;;;5072948;28;20020;-74
2022/07/21 16:08:48;;;;;;;5.00;1.60;;;;;;;;;;5071967;28;20071;-74